Time;durP1;ratioP1;P1;durP2;ratioP2;P2;SDS_P1;SDS_P2;PMS_P1;PMS_P2;Temp;Humidity;BMP_temperature;BMP_pressure;BME280_temperature;BME280_humidity;BME280_pressure;Samples;Min_cycle;Max_cycle;Signal;HPM_P1;HPM_P2
2021/04/28 00:01:49;;;;;;;12.38;5.63;;;5.90;63.90;;;;;;4966293;28;20042;-74
2021/04/28 00:04:15;;;;;;;9.05;5.60;;;5.90;63.80;;;;;;4966747;28;20168;-73
2021/04/28 00:06:40;;;;;;;11.63;6.22;;;5.80;63.70;;;;;;4967051;28;20445;-73
2021/04/28 00:09:07;;;;;;;9.15;5.25;;;5.80;64.10;;;;;;4956594;28;20086;-74
2021/04/28 00:11:34;;;;;;;8.27;5.63;;;5.70;64.80;;;;;;4969765;28;20033;-73
2021/04/28 00:14:00;;;;;;;6.90;5.38;;;5.70;67.30;;;;;;4966305;28;20035;-74
2021/04/28 00:16:26;;;;;;;11.75;5.80;;;5.50;67.50;;;;;;4966733;28;20031;-74
2021/04/28 00:18:52;;;;;;;8.18;5.43;;;5.50;67.70;;;;;;4964354;28;20034;-73
2021/04/28 00:21:18;;;;;;;9.10;5.57;;;5.40;67.10;;;;;;4967358;28;20060;-74
2021/04/28 00:23:45;;;;;;;8.35;5.45;;;5.40;67.50;;;;;;4963890;28;20057;-74
2021/04/28 00:26:16;;;;;;;7.68;5.45;;;5.40;66.90;;;;;;4965873;28;20027;-74
2021/04/28 00:28:44;;;;;;;11.68;5.80;;;5.20;66.20;;;;;;4983383;28;20029;-73
2021/04/28 00:31:11;;;;;;;9.95;5.93;;;5.10;67.00;;;;;;4961888;28;20031;-74
2021/04/28 00:33:37;;;;;;;8.13;5.30;;;5.20;66.40;;;;;;4960484;28;20042;-74
2021/04/28 00:36:03;;;;;;;7.78;4.72;;;5.20;65.70;;;;;;4964808;28;20024;-74
2021/04/28 00:38:29;;;;;;;7.72;5.22;;;5.20;66.10;;;;;;4965082;28;20480;-73
2021/04/28 00:40:55;;;;;;;8.52;5.95;;;5.20;66.10;;;;;;4963569;28;20023;-74
2021/04/28 00:43:22;;;;;;;6.88;5.22;;;5.10;66.90;;;;;;4961577;28;20031;-74
2021/04/28 00:45:48;;;;;;;7.13;4.95;;;5.00;67.20;;;;;;4958100;28;20085;-74
2021/04/28 00:48:14;;;;;;;6.32;5.32;;;4.80;66.70;;;;;;4967866;28;20022;-74
2021/04/28 00:50:42;;;;;;;9.57;5.82;;;4.80;67.30;;;;;;4966029;28;20023;-73
2021/04/28 00:53:10;;;;;;;6.97;4.85;;;4.90;67.20;;;;;;4965676;28;20034;-74
2021/04/28 00:55:36;;;;;;;8.50;5.67;;;4.90;66.90;;;;;;4966503;28;20027;-73
2021/04/28 00:58:03;;;;;;;8.02;4.90;;;5.00;67.30;;;;;;4965543;28;20030;-74
2021/04/28 01:00:30;;;;;;;5.78;4.65;;;5.00;67.30;;;;;;4966186;28;20073;-73
2021/04/28 01:02:56;;;;;;;7.28;5.03;;;4.80;68.20;;;;;;4967887;28;20688;-75
2021/04/28 01:05:22;;;;;;;9.40;6.15;;;4.80;68.10;;;;;;4968392;28;20031;-73
2021/04/28 01:07:49;;;;;;;8.80;5.95;;;4.80;67.50;;;;;;4969262;28;20485;-74
2021/04/28 01:10:21;;;;;;;7.32;5.07;;;4.70;67.30;;;;;;4969640;28;20233;-74
2021/04/28 01:12:47;;;;;;;8.05;5.03;;;4.80;67.40;;;;;;4971573;28;20027;-74
2021/04/28 01:15:18;;;;;;;9.20;5.60;;;4.70;67.60;;;;;;4960504;28;20049;-74
2021/04/28 01:17:44;;;;;;;8.43;5.40;;;4.80;68.00;;;;;;4972144;28;20106;-74
2021/04/28 01:20:13;;;;;;;9.63;5.43;;;4.80;67.80;;;;;;4967664;28;20406;-74
2021/04/28 01:22:41;;;;;;;7.18;5.30;;;4.80;67.90;;;;;;4965094;28;20030;-74
2021/04/28 01:25:08;;;;;;;11.38;6.63;;;4.80;67.30;;;;;;4962198;28;20114;-75
2021/04/28 01:27:37;;;;;;;6.80;5.80;;;4.80;66.80;;;;;;4967460;28;20117;-74
2021/04/28 01:30:05;;;;;;;7.40;6.35;;;4.90;66.90;;;;;;4966499;28;20059;-74
2021/04/28 01:32:32;;;;;;;7.45;5.68;;;4.80;68.50;;;;;;4984885;28;20039;-74
2021/04/28 01:34:59;;;;;;;11.15;6.00;;;4.70;68.90;;;;;;4980851;28;20031;-73
2021/04/28 01:37:26;;;;;;;11.27;5.78;;;4.60;68.70;;;;;;4961198;28;20042;-74
2021/04/28 01:39:52;;;;;;;7.68;5.15;;;4.50;68.30;;;;;;4970124;28;20063;-74
2021/04/28 01:42:19;;;;;;;6.30;4.75;;;4.60;68.70;;;;;;4973620;28;20090;-75
2021/04/28 01:44:47;;;;;;;10.07;6.50;;;4.60;69.00;;;;;;4968924;28;20067;-74
2021/04/28 01:47:13;;;;;;;7.10;4.97;;;4.50;69.10;;;;;;4965694;28;20149;-74
2021/04/28 01:49:41;;;;;;;7.82;5.78;;;4.60;68.90;;;;;;4971655;28;20047;-74
2021/04/28 01:52:07;;;;;;;9.73;6.10;;;4.50;69.20;;;;;;4962537;28;20512;-75
2021/04/28 01:54:33;;;;;;;8.98;5.82;;;4.40;69.10;;;;;;4968977;28;20042;-74
2021/04/28 01:56:59;;;;;;;7.25;5.88;;;4.30;69.10;;;;;;4970132;28;20077;-74
2021/04/28 01:59:27;;;;;;;10.13;5.97;;;4.30;69.90;;;;;;4971226;28;20042;-74
2021/04/28 02:01:55;;;;;;;9.13;5.82;;;4.10;70.40;;;;;;4964173;28;20046;-74
2021/04/28 02:04:21;;;;;;;12.45;6.25;;;4.10;70.40;;;;;;4988420;28;20437;-74
2021/04/28 02:06:49;;;;;;;8.63;5.47;;;4.20;70.10;;;;;;4961642;28;20081;-74
2021/04/28 02:09:15;;;;;;;12.50;5.90;;;4.20;70.00;;;;;;4963499;28;20053;-74
2021/04/28 02:11:41;;;;;;;8.40;5.45;;;4.20;70.30;;;;;;4966936;28;20126;-74
2021/04/28 02:14:07;;;;;;;6.03;5.38;;;4.20;70.60;;;;;;4971599;28;20023;-74
2021/04/28 02:16:37;;;;;;;8.85;5.85;;;4.30;71.10;;;;;;4962453;28;20030;-74
2021/04/28 02:19:05;;;;;;;8.50;5.95;;;4.30;70.50;;;;;;4965867;28;20616;-74
2021/04/28 02:21:30;;;;;;;9.32;6.40;;;4.30;71.10;;;;;;4966303;28;20023;-74
2021/04/28 02:23:57;;;;;;;7.57;4.85;;;4.30;70.50;;;;;;4967262;28;20030;-72
2021/04/28 02:26:22;;;;;;;7.03;4.78;;;4.30;69.80;;;;;;4970281;28;20393;-74
2021/04/28 02:28:48;;;;;;;7.85;5.47;;;4.20;70.50;;;;;;4961242;28;20018;-75
2021/04/28 02:31:14;;;;;;;6.13;5.22;;;4.20;70.60;;;;;;4964955;28;20035;-74
2021/04/28 02:33:39;;;;;;;8.40;5.93;;;4.10;71.20;;;;;;4963023;28;20031;-74
2021/04/28 02:36:05;;;;;;;12.98;5.85;;;3.90;71.70;;;;;;4963644;28;20334;-75
2021/04/28 02:38:38;;;;;;;8.93;6.03;;;3.80;71.80;;;;;;4961114;28;20027;-73
2021/04/28 02:41:05;;;;;;;10.82;6.13;;;3.70;72.50;;;;;;4965855;28;20497;-73
2021/04/28 02:43:34;;;;;;;8.18;5.75;;;3.70;72.70;;;;;;4963536;28;20616;-74
2021/04/28 02:46:01;;;;;;;8.27;5.90;;;3.70;72.00;;;;;;4967779;28;20031;-74
2021/04/28 02:48:28;;;;;;;10.10;6.13;;;3.80;71.80;;;;;;4970116;28;20046;-74
2021/04/28 02:50:55;;;;;;;10.65;5.65;;;3.80;70.90;;;;;;4969905;28;20167;-74
2021/04/28 02:53:24;;;;;;;7.75;5.68;;;3.90;70.40;;;;;;4973634;28;20026;-74
2021/04/28 02:55:54;;;;;;;7.55;5.65;;;3.90;70.80;;;;;;4970657;28;20113;-74
2021/04/28 02:58:20;;;;;;;11.00;7.05;;;3.80;70.80;;;;;;4964944;28;20032;-74
2021/04/28 03:00:46;;;;;;;9.57;6.20;;;3.80;71.50;;;;;;4968182;28;20050;-74
2021/04/28 03:03:16;;;;;;;10.55;7.22;;;3.80;72.20;;;;;;4968522;28;20576;-74
2021/04/28 03:05:42;;;;;;;8.98;6.43;;;3.80;72.90;;;;;;4969774;28;20031;-74
2021/04/28 03:08:08;;;;;;;8.02;5.68;;;3.70;73.20;;;;;;4967100;28;20035;-74
2021/04/28 03:10:35;;;;;;;15.63;7.68;;;3.60;73.10;;;;;;4972453;28;20034;-74
2021/04/28 03:13:01;;;;;;;11.00;6.65;;;3.70;72.60;;;;;;4973472;28;20086;-74
2021/04/28 03:15:27;;;;;;;9.65;6.45;;;3.70;73.40;;;;;;4969895;28;20508;-73
2021/04/28 03:17:53;;;;;;;9.45;6.40;;;3.70;72.90;;;;;;4971266;28;20490;-74
2021/04/28 03:20:20;;;;;;;7.45;5.35;;;3.60;72.60;;;;;;4966851;28;20038;-75
2021/04/28 03:22:46;;;;;;;11.85;4.82;;;3.60;71.30;;;;;;4967438;28;20107;-74
2021/04/28 03:25:13;;;;;;;12.15;6.82;;;3.40;71.50;;;;;;4971679;28;20500;-75
2021/04/28 03:27:38;;;;;;;8.35;5.78;;;3.40;71.70;;;;;;4967104;28;20122;-75
2021/04/28 03:30:07;;;;;;;11.95;5.57;;;3.20;73.70;;;;;;4974164;28;20074;-74
2021/04/28 03:32:32;;;;;;;8.73;5.25;;;3.10;75.10;;;;;;4968225;28;20074;-74
2021/04/28 03:34:58;;;;;;;9.80;5.60;;;3.20;73.30;;;;;;4968860;28;20130;-74
2021/04/28 03:37:24;;;;;;;9.90;5.15;;;3.20;71.90;;;;;;4968461;28;20110;-75
2021/04/28 03:39:50;;;;;;;9.98;6.05;;;3.20;71.10;;;;;;4966606;28;20031;-75
2021/04/28 03:42:16;;;;;;;9.65;5.82;;;3.10;71.40;;;;;;4969386;28;20490;-75
2021/04/28 03:44:42;;;;;;;12.45;5.90;;;3.10;71.80;;;;;;4972913;28;20128;-75
2021/04/28 03:47:07;;;;;;;8.43;5.18;;;3.10;71.60;;;;;;4968463;28;20534;-73
2021/04/28 03:49:33;;;;;;;6.60;4.95;;;3.00;74.80;;;;;;4965787;28;20051;-74
2021/04/28 03:51:59;;;;;;;7.13;4.68;;;3.00;74.00;;;;;;4982302;28;20032;-74
2021/04/28 03:54:24;;;;;;;7.22;5.50;;;3.10;73.30;;;;;;4967655;28;20027;-75
2021/04/28 03:56:50;;;;;;;9.25;6.07;;;3.10;73.80;;;;;;4961990;28;20037;-75
2021/04/28 03:59:16;;;;;;;9.82;5.60;;;3.00;73.90;;;;;;4967946;28;20031;-74
2021/04/28 04:01:42;;;;;;;11.40;6.30;;;3.00;74.80;;;;;;4963216;28;20075;-74
2021/04/28 04:04:08;;;;;;;7.88;5.40;;;2.90;76.70;;;;;;4966592;28;20054;-75
2021/04/28 04:06:34;;;;;;;15.10;5.90;;;2.80;78.70;;;;;;4966421;28;20081;-74
2021/04/28 04:08:59;;;;;;;7.90;5.47;;;2.70;78.90;;;;;;4965546;28;20054;-75
2021/04/28 04:11:26;;;;;;;10.50;7.18;;;2.70;78.50;;;;;;4970263;28;20023;-75
2021/04/28 04:13:51;;;;;;;10.45;6.40;;;2.70;78.70;;;;;;4967655;28;20093;-75
2021/04/28 04:16:18;;;;;;;13.07;6.55;;;2.60;79.50;;;;;;4966904;28;20581;-74
2021/04/28 04:18:43;;;;;;;18.85;7.82;;;2.70;79.60;;;;;;4968976;28;20114;-73
2021/04/28 04:21:09;;;;;;;12.82;6.90;;;2.70;80.50;;;;;;4965537;28;20066;-74
2021/04/28 04:23:34;;;;;;;12.55;8.00;;;2.70;80.40;;;;;;4965857;28;20035;-74
2021/04/28 04:26:00;;;;;;;12.70;6.85;;;2.80;79.40;;;;;;4965017;28;20035;-74
2021/04/28 04:28:26;;;;;;;12.75;6.55;;;3.00;78.10;;;;;;4966738;28;20078;-75
2021/04/28 04:30:52;;;;;;;8.23;5.35;;;3.00;75.80;;;;;;4969617;28;20037;-75
2021/04/28 04:33:19;;;;;;;10.80;5.53;;;3.00;74.40;;;;;;4966320;28;20374;-73
2021/04/28 04:35:45;;;;;;;8.25;5.30;;;2.90;74.20;;;;;;4979721;28;20026;-74
2021/04/28 04:38:11;;;;;;;6.78;4.72;;;2.90;74.30;;;;;;4969078;28;20031;-75
2021/04/28 04:40:37;;;;;;;5.20;4.25;;;2.90;75.30;;;;;;4966493;28;20030;-75
2021/04/28 04:43:03;;;;;;;6.78;4.95;;;3.00;75.80;;;;;;4964218;28;20039;-75
2021/04/28 04:45:29;;;;;;;9.18;5.75;;;3.00;76.30;;;;;;4967687;28;20659;-74
2021/04/28 04:47:55;;;;;;;11.48;6.13;;;3.10;77.00;;;;;;4968657;28;20037;-75
2021/04/28 04:50:20;;;;;;;11.32;6.50;;;3.10;77.20;;;;;;4967415;28;20161;-74
2021/04/28 04:52:46;;;;;;;10.77;7.03;;;3.20;76.40;;;;;;4967279;28;20061;-74
2021/04/28 04:55:12;;;;;;;8.00;7.03;;;3.30;76.00;;;;;;4967543;28;20038;-74
2021/04/28 04:57:38;;;;;;;14.60;6.57;;;3.30;76.50;;;;;;4967104;28;20042;-74
2021/04/28 05:00:04;;;;;;;9.25;6.07;;;3.40;75.80;;;;;;4969562;28;20027;-75
2021/04/28 05:02:30;;;;;;;9.52;6.53;;;3.40;75.70;;;;;;4966363;28;20042;-75
2021/04/28 05:04:56;;;;;;;11.75;7.18;;;3.40;76.00;;;;;;4973258;28;20055;-74
2021/04/28 05:07:21;;;;;;;9.73;6.70;;;3.40;76.30;;;;;;4966859;28;20030;-73
2021/04/28 05:09:47;;;;;;;17.80;8.25;;;3.50;77.20;;;;;;4964234;28;20027;-74
2021/04/28 05:12:13;;;;;;;14.98;6.35;;;3.60;76.90;;;;;;4968722;28;20482;-74
2021/04/28 05:14:38;;;;;;;7.68;6.82;;;3.60;77.10;;;;;;4968724;28;20053;-74
2021/04/28 05:17:04;;;;;;;8.00;6.72;;;3.70;77.20;;;;;;4970651;28;20438;-74
2021/04/28 05:19:29;;;;;;;7.75;6.93;;;3.70;77.50;;;;;;4966667;28;20050;-74
2021/04/28 05:21:55;;;;;;;10.90;7.65;;;3.80;78.00;;;;;;4966620;28;20069;-74
2021/04/28 05:24:21;;;;;;;14.82;8.00;;;3.90;78.00;;;;;;4967156;28;20514;-74
2021/04/28 05:26:46;;;;;;;13.88;7.90;;;4.10;76.70;;;;;;4966286;28;20114;-74
2021/04/28 05:29:12;;;;;;;10.80;7.55;;;4.20;76.20;;;;;;4968868;28;20053;-74
2021/04/28 05:31:37;;;;;;;11.25;7.40;;;4.30;75.90;;;;;;4960656;28;20066;-74
2021/04/28 05:34:03;;;;;;;11.82;7.85;;;4.40;76.10;;;;;;4964120;28;20529;-74
2021/04/28 05:36:29;;;;;;;9.70;6.88;;;4.40;75.50;;;;;;4963167;28;20023;-74
2021/04/28 05:38:58;;;;;;;12.23;8.02;;;4.50;76.70;;;;;;4960215;28;20050;-74
2021/04/28 05:41:24;;;;;;;12.70;8.30;;;4.60;76.50;;;;;;4961949;28;20019;-74
2021/04/28 05:43:49;;;;;;;18.55;8.85;;;4.70;77.40;;;;;;4964118;28;20511;-72
2021/04/28 05:46:15;;;;;;;14.68;8.15;;;4.80;76.70;;;;;;4962786;28;20055;-74
2021/04/28 05:48:41;;;;;;;11.90;8.13;;;5.00;76.50;;;;;;4967500;28;20023;-74
2021/04/28 05:51:07;;;;;;;15.07;8.43;;;5.10;76.80;;;;;;4966714;28;20682;-74
2021/04/28 05:53:33;;;;;;;15.10;9.13;;;5.20;77.20;;;;;;4962053;28;20150;-74
2021/04/28 05:56:05;;;;;;;13.18;8.68;;;5.30;77.10;;;;;;4968978;28;20054;-73
2021/04/28 05:58:31;;;;;;;13.48;9.00;;;5.40;77.50;;;;;;4965479;28;20525;-74
2021/04/28 06:00:57;;;;;;;15.23;9.15;;;5.40;77.40;;;;;;4959419;28;20053;-73
2021/04/28 06:03:23;;;;;;;13.25;8.57;;;5.50;77.10;;;;;;4971308;28;20030;-74
2021/04/28 06:05:49;;;;;;;13.63;9.23;;;5.60;78.00;;;;;;4965768;28;20121;-73
2021/04/28 06:08:16;;;;;;;14.63;9.70;;;5.70;78.40;;;;;;4962976;28;20030;-74
2021/04/28 06:10:42;;;;;;;14.68;9.07;;;5.80;78.30;;;;;;4962931;28;20034;-74
2021/04/28 06:13:08;;;;;;;12.95;9.13;;;5.80;77.80;;;;;;4963274;28;20034;-73
2021/04/28 06:15:34;;;;;;;22.70;10.35;;;5.90;77.30;;;;;;4957905;28;20034;-74
2021/04/28 06:18:00;;;;;;;15.90;10.02;;;6.00;77.40;;;;;;4962989;28;20045;-74
2021/04/28 06:20:26;;;;;;;17.55;9.70;;;6.10;78.50;;;;;;4963357;28;20026;-73
2021/04/28 06:22:51;;;;;;;13.73;9.95;;;6.10;77.90;;;;;;4970657;28;20113;-74
2021/04/28 06:25:17;;;;;;;22.45;9.95;;;6.20;78.20;;;;;;4965802;28;20091;-74
2021/04/28 06:27:43;;;;;;;18.63;10.15;;;6.40;78.10;;;;;;4965306;28;20023;-74
2021/04/28 06:30:10;;;;;;;18.17;10.35;;;6.40;78.60;;;;;;4963058;28;20026;-74
2021/04/28 06:32:37;;;;;;;17.27;10.52;;;6.60;78.30;;;;;;4963764;28;20659;-74
2021/04/28 06:35:04;;;;;;;18.65;9.88;;;6.70;79.50;;;;;;4963938;28;20024;-73
2021/04/28 06:37:30;;;;;;;25.25;11.52;;;6.80;78.20;;;;;;4965366;28;20022;-74
2021/04/28 06:39:56;;;;;;;22.67;10.75;;;7.00;78.50;;;;;;4963419;28;20030;-74
2021/04/28 06:42:22;;;;;;;18.73;11.40;;;7.10;78.70;;;;;;4964593;28;20050;-73
2021/04/28 06:44:48;;;;;;;17.05;10.13;;;7.30;76.30;;;;;;4963755;28;20506;-73
2021/04/28 06:47:15;;;;;;;19.67;10.18;;;7.40;75.90;;;;;;4961816;28;20039;-73
2021/04/28 06:49:41;;;;;;;21.25;10.70;;;7.50;77.10;;;;;;4968191;28;20019;-73
2021/04/28 06:52:07;;;;;;;17.73;10.45;;;7.60;75.60;;;;;;4968981;28;20513;-74
2021/04/28 06:54:32;;;;;;;20.23;11.43;;;7.80;75.90;;;;;;4965284;28;20031;-74
2021/04/28 06:56:58;;;;;;;21.77;10.57;;;8.00;75.10;;;;;;4965175;28;20031;-73
2021/04/28 06:59:24;;;;;;;15.38;9.73;;;8.10;74.80;;;;;;4964553;28;20035;-73
2021/04/28 07:01:53;;;;;;;14.63;10.02;;;8.30;75.00;;;;;;4965520;28;20175;-74
2021/04/28 07:04:20;;;;;;;16.38;10.48;;;8.40;73.60;;;;;;4964392;28;20407;-74
2021/04/28 07:06:46;;;;;;;16.98;9.70;;;8.50;73.60;;;;;;4970235;28;20134;-73
2021/04/28 07:09:12;;;;;;;12.98;9.82;;;8.70;73.70;;;;;;4965658;28;20042;-74
2021/04/28 07:11:37;;;;;;;15.43;10.88;;;8.80;71.70;;;;;;4966032;28;20026;-74
2021/04/28 07:14:03;;;;;;;14.63;10.15;;;9.00;70.60;;;;;;4963085;28;20038;-73
2021/04/28 07:16:29;;;;;;;15.38;10.15;;;9.10;70.80;;;;;;4962147;28;20085;-73
2021/04/28 07:18:55;;;;;;;14.57;10.23;;;9.10;69.60;;;;;;4973384;28;20506;-74
2021/04/28 07:21:21;;;;;;;16.10;10.85;;;9.20;70.20;;;;;;4967793;28;20577;-74
2021/04/28 07:23:46;;;;;;;15.23;10.00;;;9.30;70.30;;;;;;4964528;28;20181;-74
2021/04/28 07:26:13;;;;;;;18.75;10.68;;;9.40;68.80;;;;;;4967052;28;20418;-74
2021/04/28 07:28:39;;;;;;;19.58;10.43;;;9.50;70.20;;;;;;4968795;28;20015;-73
2021/04/28 07:31:05;;;;;;;18.08;11.00;;;9.60;69.60;;;;;;4962123;28;20030;-74
2021/04/28 07:33:31;;;;;;;21.38;11.35;;;9.70;70.10;;;;;;4968108;28;20031;-74
2021/04/28 07:35:57;;;;;;;16.20;10.48;;;9.90;70.20;;;;;;4972166;28;20031;-74
2021/04/28 07:38:22;;;;;;;17.05;11.10;;;10.00;69.80;;;;;;4970973;28;20541;-73
2021/04/28 07:40:49;;;;;;;14.73;10.27;;;10.20;70.10;;;;;;4970381;28;20453;-74
2021/04/28 07:43:14;;;;;;;16.27;10.98;;;10.40;69.50;;;;;;4984729;28;20515;-74
2021/04/28 07:45:40;;;;;;;16.08;10.70;;;10.60;67.10;;;;;;4971673;28;20031;-74
2021/04/28 07:48:08;;;;;;;17.83;11.55;;;10.70;65.10;;;;;;4964975;28;20022;-74
2021/04/28 07:50:36;;;;;;;14.40;10.73;;;10.80;66.50;;;;;;4969531;28;20490;-74
2021/04/28 07:53:01;;;;;;;18.02;10.95;;;10.90;65.90;;;;;;4962024;28;20058;-73
2021/04/28 07:55:27;;;;;;;18.45;10.55;;;11.00;65.20;;;;;;4961364;28;20022;-74
2021/04/28 07:57:53;;;;;;;26.58;11.55;;;11.20;65.40;;;;;;4965847;28;20042;-74
2021/04/28 08:00:19;;;;;;;14.23;10.20;;;11.30;64.90;;;;;;4968511;28;20030;-75
2021/04/28 08:02:47;;;;;;;14.02;10.05;;;11.60;63.00;;;;;;4966408;28;20026;-74
2021/04/28 08:05:12;;;;;;;14.20;9.70;;;11.60;62.60;;;;;;4960667;28;20019;-73
2021/04/28 08:07:38;;;;;;;14.77;10.35;;;11.60;59.90;;;;;;4967644;28;20034;-74
2021/04/28 08:10:05;;;;;;;14.02;10.68;;;11.80;64.10;;;;;;4971621;28;20023;-74
2021/04/28 08:12:30;;;;;;;16.95;10.88;;;11.90;62.70;;;;;;4965595;28;20500;-73
2021/04/28 08:14:56;;;;;;;16.75;11.48;;;12.00;61.50;;;;;;4964377;28;20645;-72
2021/04/28 08:17:22;;;;;;;15.75;10.40;;;12.10;62.10;;;;;;4961540;28;20023;-74
2021/04/28 08:19:47;;;;;;;14.88;9.95;;;12.30;64.00;;;;;;4965931;28;20027;-75
2021/04/28 08:22:13;;;;;;;14.02;8.90;;;12.50;61.40;;;;;;4960471;28;20030;-74
2021/04/28 08:24:39;;;;;;;13.10;9.23;;;12.60;58.00;;;;;;4970200;28;20697;-74
2021/04/28 08:27:05;;;;;;;13.35;8.57;;;12.80;57.40;;;;;;4968677;28;20134;-74
2021/04/28 08:29:30;;;;;;;12.25;9.43;;;12.80;60.50;;;;;;4975732;28;20054;-74
2021/04/28 08:31:56;;;;;;;11.25;8.63;;;13.00;57.80;;;;;;4973581;28;20113;-73
2021/04/28 08:34:22;;;;;;;11.93;8.38;;;13.20;57.30;;;;;;4970851;28;20078;-74
2021/04/28 08:36:47;;;;;;;12.50;9.27;;;13.20;56.50;;;;;;4964401;28;20038;-74
2021/04/28 08:39:13;;;;;;;14.15;8.65;;;13.30;59.20;;;;;;4968198;28;20023;-74
2021/04/28 08:41:38;;;;;;;12.45;7.93;;;13.50;57.30;;;;;;4968806;28;20034;-74
2021/04/28 08:44:09;;;;;;;11.55;8.43;;;13.60;54.00;;;;;;4968706;28;20402;-74
2021/04/28 08:46:35;;;;;;;12.38;8.27;;;13.70;54.70;;;;;;4970468;28;20031;-75
2021/04/28 08:49:03;;;;;;;12.70;8.15;;;13.80;53.90;;;;;;4968224;28;20027;-74
2021/04/28 08:51:29;;;;;;;11.70;6.77;;;14.10;54.10;;;;;;4968910;28;20023;-74
2021/04/28 08:53:54;;;;;;;11.85;7.45;;;14.00;51.50;;;;;;4968345;28;20490;-74
2021/04/28 08:56:21;;;;;;;11.93;8.43;;;14.10;49.80;;;;;;4966041;28;20030;-74
2021/04/28 08:58:50;;;;;;;15.85;8.80;;;14.30;53.50;;;;;;4965711;28;20039;-74
2021/04/28 09:01:27;;;;;;;11.73;7.97;;;14.40;54.20;;;;;;4962524;28;20137;-74
2021/04/28 09:03:53;;;;;;;11.63;7.65;;;14.40;52.50;;;;;;4971382;28;20019;-74
2021/04/28 09:06:36;;;;;;;14.02;8.07;;;14.50;51.90;;;;;;4965290;28;20059;-74
2021/04/28 09:09:06;;;;;;;10.80;7.35;;;14.60;52.60;;;;;;4956653;28;20503;-73
2021/04/28 09:11:46;;;;;;;11.55;8.20;;;14.50;48.30;;;;;;4963614;28;20026;-73
2021/04/28 09:14:24;;;;;;;12.02;7.97;;;14.70;51.80;;;;;;4961578;28;20034;-74
2021/04/28 09:16:55;;;;;;;;;;;14.80;51.60;;;;;;4963168;28;20457;-74
2021/04/28 09:19:24;;;;;;;11.70;7.15;;;14.80;52.30;;;;;;4963874;28;19920;-74
2021/04/28 09:22:01;;;;;;;;;;;14.90;50.30;;;;;;4965959;28;20050;-74
2021/04/28 09:24:45;;;;;;;11.75;7.00;;;15.00;50.80;;;;;;4966864;28;19918;-74
2021/04/28 09:27:26;;;;;;;10.50;7.13;;;15.10;50.40;;;;;;4963051;28;20042;-74
2021/04/28 09:29:53;;;;;;;11.80;7.57;;;15.20;50.30;;;;;;4968176;28;20098;-74
2021/04/28 09:32:19;;;;;;;12.60;7.55;;;15.30;48.80;;;;;;4962317;28;20059;-74
2021/04/28 09:34:45;;;;;;;13.75;7.13;;;15.30;49.10;;;;;;4962473;28;20031;-74
2021/04/28 09:37:17;;;;;;;13.15;7.78;;;15.30;48.10;;;;;;4964932;28;20042;-74
2021/04/28 09:39:48;;;;;;;12.00;7.38;;;15.30;47.10;;;;;;4964789;28;20058;-75
2021/04/28 09:42:16;;;;;;;10.00;7.43;;;15.40;49.60;;;;;;4966057;28;20038;-74
2021/04/28 09:44:47;;;;;;;10.40;6.57;;;15.60;48.00;;;;;;4968406;28;20386;-74
2021/04/28 09:47:16;;;;;;;12.43;7.45;;;15.60;45.50;;;;;;4964442;28;20105;-74
2021/04/28 09:49:43;;;;;;;10.50;6.82;;;15.70;47.80;;;;;;4968714;28;20018;-75
2021/04/28 09:52:09;;;;;;;11.23;7.15;;;15.70;47.10;;;;;;4966633;28;20114;-75
2021/04/28 09:54:35;;;;;;;12.40;7.40;;;15.80;47.40;;;;;;4962371;28;20634;-74
2021/04/28 09:57:01;;;;;;;12.40;6.78;;;15.90;45.60;;;;;;4966676;28;20054;-74
2021/04/28 09:59:46;;;;;;;9.60;7.07;;;15.90;48.70;;;;;;4982923;28;20446;-74
2021/04/28 10:02:27;;;;;;;11.60;6.72;;;16.10;44.70;;;;;;4963548;28;20100;-74
2021/04/28 10:05:13;;;;;;;14.63;7.75;;;16.10;44.80;;;;;;4963713;28;20078;-75
2021/04/28 10:07:39;;;;;;;11.93;7.13;;;16.10;43.20;;;;;;4966988;28;20556;-74
2021/04/28 10:10:05;;;;;;;14.55;7.43;;;16.20;47.60;;;;;;4965288;28;20034;-74
2021/04/28 10:12:30;;;;;;;13.18;7.47;;;16.50;47.10;;;;;;4965136;28;20047;-74
2021/04/28 10:14:56;;;;;;;15.98;7.28;;;16.30;43.70;;;;;;4966142;28;20033;-73
2021/04/28 10:17:22;;;;;;;9.25;6.70;;;16.30;43.30;;;;;;4977717;28;20506;-74
2021/04/28 10:19:49;;;;;;;14.65;7.40;;;16.40;46.20;;;;;;4966441;28;20506;-74
2021/04/28 10:22:19;;;;;;;15.27;6.93;;;16.50;44.30;;;;;;4967073;28;20030;-74
2021/04/28 10:24:48;;;;;;;11.90;7.18;;;16.50;43.40;;;;;;4968583;28;20027;-75
2021/04/28 10:27:17;;;;;;;9.63;6.63;;;16.60;46.60;;;;;;4963824;28;20027;-74
2021/04/28 10:29:43;;;;;;;11.90;7.28;;;16.70;45.40;;;;;;4961977;28;20019;-75
2021/04/28 10:32:13;;;;;;;13.10;7.22;;;16.90;43.20;;;;;;4965983;28;20581;-75
2021/04/28 10:34:49;;;;;;;10.57;7.20;;;16.90;45.50;;;;;;4963011;28;20137;-74
2021/04/28 10:37:15;;;;;;;12.70;6.95;;;16.90;42.30;;;;;;4966834;28;20030;-74
2021/04/28 10:39:46;;;;;;;12.82;6.93;;;16.90;43.40;;;;;;4971797;28;20377;-75
2021/04/28 10:42:25;;;;;;;11.60;6.75;;;16.90;47.50;;;;;;4963620;28;20111;-75
2021/04/28 10:44:51;;;;;;;9.98;6.35;;;17.00;42.90;;;;;;4972497;28;20516;-75
2021/04/28 10:47:35;;;;;;;13.02;7.38;;;16.90;42.60;;;;;;4968465;28;20030;-73
2021/04/28 10:50:24;;;;;;;11.65;6.35;;;17.00;42.90;;;;;;4967881;28;20011;-74
2021/04/28 10:52:59;;;;;;;11.93;6.90;;;17.30;42.20;;;;;;4964144;28;20015;-75
2021/04/28 10:55:53;;;;;;;11.75;6.40;;;17.50;42.80;;;;;;4970416;28;20022;-75
2021/04/28 10:58:34;;;;;;;11.00;6.82;;;17.60;38.70;;;;;;4971532;28;20022;-74
2021/04/28 11:01:04;;;;;;;11.38;7.53;;;17.70;40.70;;;;;;4967456;28;20106;-74
2021/04/28 11:03:37;;;;;;;11.07;6.38;;;17.70;43.40;;;;;;4972115;28;20121;-74
2021/04/28 11:06:25;;;;;;;13.48;6.63;;;17.80;41.00;;;;;;4969273;28;20150;-75
2021/04/28 11:08:54;;;;;;;9.88;6.72;;;17.80;43.50;;;;;;4974307;28;20089;-74
2021/04/28 11:11:31;;;;;;;12.90;7.03;;;17.80;43.80;;;;;;4973233;28;20026;-75
2021/04/28 11:14:19;;;;;;;12.30;6.25;;;17.90;43.90;;;;;;4978951;28;20472;-74
2021/04/28 11:16:47;;;;;;;13.23;6.95;;;17.90;42.10;;;;;;4969739;28;20029;-75
2021/04/28 11:19:33;;;;;;;14.57;6.82;;;17.90;38.30;;;;;;4974431;28;20512;-74
2021/04/28 11:22:08;;;;;;;11.02;6.07;;;18.00;38.20;;;;;;4974436;28;20462;-74
2021/04/28 11:25:00;;;;;;;10.98;6.82;;;18.00;38.50;;;;;;4973041;28;20646;-74
2021/04/28 11:27:59;;;;;;;11.32;7.13;;;17.90;40.90;;;;;;4968773;28;20629;-74
2021/04/28 11:30:25;;;;;;;13.55;6.35;;;17.60;42.80;;;;;;4972642;28;20401;-73
2021/04/28 11:33:05;;;;;;;9.23;6.05;;;17.70;40.00;;;;;;4970754;28;20031;-74
2021/04/28 11:35:31;;;;;;;11.35;6.88;;;17.80;39.00;;;;;;4974227;28;20050;-73
2021/04/28 11:38:05;;;;;;;9.00;5.95;;;17.80;43.50;;;;;;4970489;28;20034;-73
2021/04/28 11:40:31;;;;;;;11.20;6.75;;;17.90;41.00;;;;;;4972961;28;20115;-73
2021/04/28 11:42:56;;;;;;;10.25;5.97;;;17.80;37.20;;;;;;4977486;28;20107;-73
2021/04/28 11:45:31;;;;;;;11.45;6.30;;;17.80;37.40;;;;;;4973109;28;20390;-74
2021/04/28 11:47:56;;;;;;;11.68;6.65;;;17.80;36.50;;;;;;4971863;28;20647;-73
2021/04/28 11:50:22;;;;;;;9.05;6.03;;;17.80;37.10;;;;;;4974454;28;20030;-74
2021/04/28 11:52:47;;;;;;;8.88;5.22;;;18.00;41.30;;;;;;4969677;28;20035;-74
2021/04/28 11:55:13;;;;;;;10.25;5.63;;;18.10;41.10;;;;;;4972989;28;20042;-74
2021/04/28 11:57:39;;;;;;;9.55;5.85;;;18.20;37.90;;;;;;4972591;28;20410;-74
2021/04/28 12:00:10;;;;;;;9.77;6.00;;;18.30;34.40;;;;;;4975184;28;20062;-75
2021/04/28 12:02:37;;;;;;;10.07;5.85;;;18.10;36.40;;;;;;4966580;28;20039;-74
2021/04/28 12:05:03;;;;;;;8.77;5.55;;;18.00;36.50;;;;;;4970695;28;20102;-74
2021/04/28 12:07:31;;;;;;;9.18;5.57;;;18.00;38.70;;;;;;4970673;28;20601;-74
2021/04/28 12:09:57;;;;;;;11.15;5.95;;;18.10;38.60;;;;;;4976813;28;20066;-75
2021/04/28 12:12:32;;;;;;;9.27;5.93;;;18.20;38.60;;;;;;4966593;28;20073;-73
2021/04/28 12:15:06;;;;;;;9.45;6.07;;;18.40;36.40;;;;;;4972907;28;20735;-74
2021/04/28 12:17:39;;;;;;;10.63;5.93;;;18.40;38.50;;;;;;4969864;28;20018;-75
2021/04/28 12:20:07;;;;;;;11.40;6.28;;;18.20;35.70;;;;;;4973103;28;20026;-75
2021/04/28 12:22:35;;;;;;;;;;;18.10;37.70;;;;;;4963607;28;20037;-74
2021/04/28 12:25:03;;;;;;;8.50;5.22;;;18.30;36.60;;;;;;4974045;28;19953;-74
2021/04/28 12:27:31;;;;;;;9.73;5.40;;;18.40;37.60;;;;;;4970043;28;20461;-74
2021/04/28 12:30:03;;;;;;;14.85;6.07;;;18.30;37.90;;;;;;4973495;28;20027;-74
2021/04/28 12:32:34;;;;;;;7.13;4.95;;;18.40;36.90;;;;;;4969639;28;20078;-74
2021/04/28 12:35:27;;;;;;;8.93;5.75;;;18.50;37.80;;;;;;4976008;28;20043;-75
2021/04/28 12:38:08;;;;;;;9.27;5.90;;;18.60;39.50;;;;;;4966157;28;20046;-73
2021/04/28 12:40:46;;;;;;;10.20;6.15;;;18.30;36.80;;;;;;4968845;28;20033;-74
2021/04/28 12:43:16;;;;;;;11.70;6.13;;;18.40;37.30;;;;;;4965092;28;20041;-74
2021/04/28 12:45:42;;;;;;;11.15;6.93;;;18.50;37.00;;;;;;4970147;28;20089;-74
2021/04/28 12:48:13;;;;;;;9.93;6.22;;;18.30;35.80;;;;;;4968527;28;20039;-74
2021/04/28 12:50:41;;;;;;;8.93;5.75;;;18.20;36.10;;;;;;4971703;28;20093;-74